createdAt,value
2019-06-10T00:00:37.989Z,19.30
2019-06-10T00:05:41.364Z,19.42
2019-06-10T00:10:44.727Z,19.00
2019-06-10T00:15:46.632Z,18.78
2019-06-10T00:20:48.476Z,18.70
2019-06-10T00:25:51.554Z,18.65
2019-06-10T00:30:53.648Z,18.67
2019-06-10T00:35:55.523Z,18.76
2019-06-10T00:40:57.342Z,18.76
2019-06-10T00:46:00.722Z,18.38
2019-06-10T00:51:04.476Z,18.22
2019-06-10T00:56:08.335Z,18.30
2019-06-10T01:01:14.023Z,18.30
2019-06-10T01:06:15.079Z,18.33
2019-06-10T01:11:23.686Z,18.39
2019-06-10T01:16:21.642Z,18.28
2019-06-10T01:21:23.770Z,18.28
2019-06-10T01:26:25.575Z,18.28
2019-06-10T01:31:27.385Z,18.28
2019-06-10T01:36:31.210Z,18.41
2019-06-10T01:41:32.964Z,17.89
2019-06-10T01:46:34.809Z,17.82
2019-06-10T01:51:36.686Z,17.90
2019-06-10T01:56:40.720Z,17.89
2019-06-10T02:01:56.430Z,17.72
2019-06-10T02:06:58.345Z,17.80
2019-06-10T02:12:02.220Z,17.86
2019-06-10T02:17:04.062Z,17.91
2019-06-10T02:22:05.912Z,17.91
2019-06-10T02:27:07.713Z,17.74
2019-06-10T02:32:17.260Z,17.58
2019-06-10T02:37:17.019Z,17.60
2019-06-10T02:42:30.628Z,17.52
2019-06-10T02:47:33.635Z,17.72
2019-06-10T02:52:38.241Z,17.37
2019-06-10T02:57:40.052Z,17.37
2019-06-10T03:02:44.547Z,17.22
2019-06-10T03:07:44.602Z,17.28
2019-06-10T03:12:46.495Z,17.50
2019-06-10T03:17:49.417Z,17.55
2019-06-10T03:22:52.517Z,17.59
2019-06-10T03:27:54.632Z,17.55
2019-06-10T03:32:56.413Z,17.52
2019-06-10T03:37:58.226Z,17.64
2019-06-10T03:43:02.500Z,17.21
2019-06-10T03:48:03.866Z,17.29
2019-06-10T03:53:05.699Z,17.37
2019-06-10T03:58:07.565Z,17.08
2019-06-10T04:03:09.376Z,17.16
2019-06-10T04:08:12.570Z,17.43
2019-06-10T04:13:14.469Z,17.57
2019-06-10T04:18:17.769Z,17.57
2019-06-10T04:23:19.878Z,17.71
2019-06-10T04:28:24.055Z,17.83
2019-06-10T04:33:27.055Z,17.84
2019-06-10T04:38:29.357Z,17.91
2019-06-10T04:43:32.546Z,17.79
2019-06-10T04:48:35.887Z,17.84
2019-06-10T04:53:40.323Z,17.84
2019-06-10T04:58:43.228Z,17.98
2019-06-10T05:03:45.300Z,18.02
2019-06-10T05:08:47.193Z,18.12
2019-06-10T05:13:49.089Z,18.27
2019-06-10T05:18:54.110Z,18.26
2019-06-10T05:23:54.668Z,18.27
2019-06-10T05:28:56.529Z,18.46
2019-06-10T05:33:59.427Z,18.51
2019-06-10T05:39:02.725Z,18.51
2019-06-10T05:44:05.061Z,19.06
2019-06-10T05:49:06.977Z,19.06
2019-06-10T05:54:08.870Z,19.55
2019-06-10T05:59:12.100Z,20.08
2019-06-10T06:04:14.203Z,20.49
2019-06-10T06:09:16.081Z,20.87
2019-06-10T06:14:17.978Z,21.06
2019-06-10T06:19:19.870Z,21.36
2019-06-10T06:24:22.085Z,21.63
2019-06-10T06:29:24.035Z,21.53
2019-06-10T06:34:26.880Z,21.53
2019-06-10T06:39:29.331Z,21.90
2019-06-10T06:44:33.668Z,22.32
2019-06-10T06:49:37.075Z,23.00
2019-06-10T06:54:39.491Z,22.97
2019-06-10T06:59:43.223Z,23.60
2019-06-10T07:04:48.490Z,24.52
2019-06-10T07:09:52.748Z,25.11
2019-06-10T07:14:54.604Z,25.58
2019-06-10T07:19:57.640Z,25.89
2019-06-10T07:25:03.438Z,25.88
2019-06-10T07:30:15.670Z,26.13
2019-06-10T07:35:17.679Z,26.39
2019-06-10T07:40:19.526Z,26.64
2019-06-10T07:45:23.441Z,26.68
2019-06-10T07:50:25.440Z,27.05
2019-06-10T07:55:28.187Z,26.60
2019-06-10T08:00:30.007Z,26.78
2019-06-10T08:05:32.406Z,27.04
2019-06-10T08:10:35.534Z,26.93
2019-06-10T08:15:37.566Z,27.10
2019-06-10T08:20:45.414Z,27.55
2019-06-10T08:25:53.651Z,27.85
2019-06-10T08:30:53.313Z,27.08
2019-06-10T08:36:00.204Z,26.37
2019-06-10T08:40:59.110Z,25.97
2019-06-10T08:46:02.544Z,26.11
2019-06-10T08:51:04.782Z,26.69
2019-06-10T08:56:07.181Z,26.90
2019-06-10T09:01:09.155Z,27.30
2019-06-10T09:06:12.768Z,27.68
2019-06-10T09:11:14.737Z,28.01
2019-06-10T09:16:19.368Z,27.60
2019-06-10T09:21:22.296Z,27.75
2019-06-10T09:26:23.988Z,27.87
2019-06-10T09:31:25.876Z,28.06
2019-06-10T09:36:27.662Z,27.50
2019-06-10T09:41:37.345Z,28.06
2019-06-10T09:46:34.157Z,28.05
2019-06-10T09:51:35.983Z,27.27
2019-06-10T09:56:37.820Z,28.14
2019-06-10T10:01:40.882Z,28.53
2019-06-10T10:06:46.657Z,28.52
2019-06-10T10:11:48.809Z,28.50
2019-06-10T10:16:58.687Z,28.27
2019-06-10T10:21:58.207Z,28.24
2019-06-10T10:27:01.873Z,27.90
2019-06-10T10:32:02.781Z,27.92
2019-06-10T10:37:05.725Z,27.29
2019-06-10T10:42:07.595Z,27.23
2019-06-10T10:47:09.389Z,27.08
2019-06-10T10:52:12.963Z,27.22
2019-06-10T10:57:15.044Z,27.38
2019-06-10T11:02:16.896Z,27.68
2019-06-10T11:07:18.779Z,27.21
2019-06-10T11:12:22.962Z,26.50
2019-06-10T11:17:25.817Z,26.23
2019-06-10T11:22:27.980Z,26.73
2019-06-10T11:27:30.838Z,27.20
2019-06-10T11:32:33.582Z,27.31
2019-06-10T11:37:35.876Z,27.78
2019-06-10T11:42:37.694Z,27.72
2019-06-10T11:47:42.605Z,28.04
2019-06-10T11:52:44.594Z,27.85
2019-06-10T11:57:47.774Z,27.22
2019-06-10T12:02:50.912Z,27.03
2019-06-10T12:07:57.591Z,27.25
2019-06-10T12:13:00.556Z,27.58
2019-06-10T12:18:07.885Z,27.94
2019-06-10T12:23:05.490Z,28.23
2019-06-10T12:28:07.997Z,28.50
2019-06-10T12:33:20.015Z,28.44
2019-06-10T12:38:18.590Z,28.59
2019-06-10T12:43:23.196Z,28.38
2019-06-10T12:48:24.921Z,27.75
2019-06-10T12:53:27.228Z,27.22
2019-06-10T12:58:30.169Z,27.59
2019-06-10T13:03:33.653Z,28.05
2019-06-10T13:08:36.678Z,27.11
2019-06-10T13:13:39.298Z,26.82
2019-06-10T14:03:53.801Z,22.95
2019-06-10T14:08:56.155Z,23.19
2019-06-10T14:13:59.048Z,22.76
2019-06-10T14:19:02.083Z,22.71
2019-06-10T14:24:06.088Z,22.58
2019-06-10T14:29:09.246Z,22.78
2019-06-10T14:34:16.334Z,23.10
2019-06-10T14:39:16.059Z,23.00
2019-06-10T14:44:18.167Z,22.80
2019-06-10T14:49:22.274Z,22.87
2019-06-10T14:54:24.111Z,22.74
2019-06-10T14:59:26.012Z,22.74
2019-06-10T15:04:27.898Z,22.58
2019-06-10T15:09:29.825Z,21.81
2019-06-10T15:14:32.363Z,22.08
2019-06-10T15:19:34.411Z,21.88
2019-06-10T15:24:36.268Z,21.94
2019-06-10T15:29:38.179Z,22.00
2019-06-10T15:34:40.139Z,22.20
2019-06-10T15:39:42.976Z,22.36
2019-06-10T15:44:52.297Z,22.83
2019-06-10T15:49:48.990Z,22.94
2019-06-10T15:54:52.565Z,22.74
2019-06-10T15:59:54.709Z,22.91
2019-06-10T16:04:56.602Z,22.68
2019-06-10T16:09:58.593Z,22.91
2019-06-10T16:15:02.638Z,23.10
2019-06-10T16:20:09.558Z,23.10
2019-06-10T16:25:12.659Z,22.98
2019-06-10T16:30:42.797Z,22.74
2019-06-10T16:35:45.076Z,22.66
2019-06-10T16:46:52.698Z,22.81
2019-06-10T16:51:54.851Z,22.95
2019-06-10T16:56:56.762Z,22.44
2019-06-10T17:01:58.942Z,21.59
2019-06-10T17:07:03.939Z,21.57
2019-06-10T17:12:06.162Z,21.48
2019-06-10T17:17:08.563Z,21.97
2019-06-10T17:22:12.630Z,22.04
2019-06-10T17:27:14.487Z,21.90
2019-06-10T17:32:16.548Z,21.73
2019-06-10T17:37:20.309Z,21.82
2019-06-10T17:42:27.831Z,21.50
2019-06-10T17:47:27.717Z,21.56
2019-06-10T17:52:32.366Z,21.61
2019-06-10T17:57:35.856Z,21.54
2019-06-10T18:02:39.369Z,21.45
2019-06-10T18:07:41.958Z,21.43
2019-06-10T18:12:43.848Z,21.45
2019-06-10T18:17:45.983Z,21.37
2019-06-10T18:22:48.065Z,20.97
2019-06-10T18:27:52.316Z,20.97
2019-06-10T18:32:55.179Z,20.91
2019-06-10T18:37:57.705Z,20.83
2019-06-10T18:42:59.963Z,20.91
2019-06-10T18:48:02.346Z,20.79
2019-06-10T18:53:04.479Z,20.57
2019-06-10T18:58:07.035Z,20.46
2019-06-10T19:03:13.154Z,20.39
2019-06-10T19:08:12.839Z,20.53
2019-06-10T19:13:14.788Z,20.37
2019-06-10T19:18:16.719Z,20.35
2019-06-10T19:39:49.305Z,20.59
2019-06-10T19:44:45.951Z,20.33
2019-06-10T19:49:47.902Z,19.62
2019-06-10T19:54:49.820Z,19.52
2019-06-10T20:00:07.246Z,19.23
2019-06-10T20:04:55.798Z,19.06
2019-06-10T20:09:57.745Z,19.03
2019-06-10T20:15:02.265Z,19.17
2019-06-10T20:20:05.925Z,18.83
2019-06-10T20:25:07.843Z,18.59
2019-06-10T20:30:24.354Z,18.57
2019-06-10T20:35:15.479Z,18.40
2019-06-10T20:40:17.477Z,18.54
2019-06-10T20:45:19.403Z,18.54
2019-06-10T20:50:21.611Z,18.53
2019-06-10T20:55:37.653Z,18.63
2019-06-10T21:00:36.337Z,18.51
2019-06-10T21:05:41.627Z,17.73
2019-06-10T21:10:46.321Z,17.73
2019-06-10T21:15:50.325Z,17.31
2019-06-10T21:20:55.970Z,18.04
2019-06-10T21:25:54.970Z,18.04
2019-06-10T21:30:58.786Z,18.31
2019-06-10T21:36:03.540Z,18.58
2019-06-10T21:41:04.659Z,18.75
2019-06-10T21:46:06.639Z,18.72
2019-06-10T21:51:08.408Z,18.86
2019-06-10T21:56:12.361Z,18.85
2019-06-10T22:01:16.885Z,18.94
2019-06-10T22:06:17.909Z,18.61
2019-06-10T22:11:19.827Z,18.47
2019-06-10T22:16:22.642Z,18.63
2019-06-10T22:21:24.675Z,18.43
2019-06-10T22:26:26.490Z,18.33
2019-06-10T22:31:28.315Z,18.48
2019-06-10T22:36:32.564Z,18.36
2019-06-10T22:41:34.047Z,18.44
2019-06-10T22:46:35.873Z,18.28
2019-06-10T22:51:37.769Z,18.27
2019-06-10T22:56:39.645Z,18.27
2019-06-10T23:01:42.389Z,18.25
2019-06-10T23:06:44.308Z,18.34
2019-06-10T23:11:46.192Z,18.32
2019-06-10T23:16:48.850Z,18.29
2019-06-10T23:21:51.807Z,18.38
2019-06-10T23:26:55.899Z,18.32
2019-06-10T23:32:03.465Z,18.32
2019-06-10T23:37:01.739Z,18.16
2019-06-10T23:42:04.305Z,18.18
2019-06-10T23:47:06.443Z,18.07
2019-06-10T23:52:08.352Z,18.12
2019-06-10T23:57:10.167Z,18.17
